Terminal Aerodrome Forecast
Issued by NWS

Home | Current Version | Previous Version | Graphics & Text | Print | Product List | Glossary On
Versions: 1 2 3 4 5 6 7 8 9 10 11 12 13 14 15 16 17 18 19 20 21 22 23 24
000
FTUS43 KABR 240817 AAA
TAFMBG
TAF AMD
KMBG 240817Z 2408/2506 03020G30KT P6SM SHRA OVC040
     FM241100 03020G30KT P6SM -SHRA OVC025
     FM241400 01013G21KT P6SM -SHRA OVC035
     FM241600 01013KT P6SM OVC035
     FM250200 VRB05KT P6SM SKC=

USA.gov is the U.S. government's official web portal to all federal, state and local government web resources and services.